sensor_id;sensor_type;location;lat;lon;timestamp;pressure;altitude;pressure_sealevel;temperature;humidity
42519;BME280;28147;47.520;18.920;2024-02-26T00:01:44;97637.09;;;9.38;100.00
42519;BME280;28147;47.520;18.920;2024-02-26T00:04:10;97640.88;;;9.42;100.00
42519;BME280;28147;47.520;18.920;2024-02-26T00:06:35;97635.50;;;9.20;100.00
42519;BME280;28147;47.520;18.920;2024-02-26T00:09:02;97627.91;;;9.46;100.00
42519;BME280;28147;47.520;18.920;2024-02-26T00:11:30;97642.75;;;9.64;100.00
42519;BME280;28147;47.520;18.920;2024-02-26T00:13:56;97638.31;;;9.47;100.00
42519;BME280;28147;47.520;18.920;2024-02-26T00:16:21;97641.88;;;9.19;100.00
42519;BME280;28147;47.520;18.920;2024-02-26T00:18:47;97639.13;;;9.31;100.00
42519;BME280;28147;47.520;18.920;2024-02-26T00:21:12;97638.69;;;9.78;100.00
42519;BME280;28147;47.520;18.920;2024-02-26T00:23:37;97631.16;;;9.70;100.00
42519;BME280;28147;47.520;18.920;2024-02-26T00:26:02;97631.44;;;9.52;100.00
42519;BME280;28147;47.520;18.920;2024-02-26T00:28:28;97634.00;;;9.63;100.00
42519;BME280;28147;47.520;18.920;2024-02-26T00:30:54;97633.25;;;9.29;100.00
42519;BME280;28147;47.520;18.920;2024-02-26T00:33:21;97642.19;;;9.62;100.00
42519;BME280;28147;47.520;18.920;2024-02-26T00:35:47;97628.41;;;9.65;100.00
42519;BME280;28147;47.520;18.920;2024-02-26T00:38:13;97623.09;;;9.65;100.00
42519;BME280;28147;47.520;18.920;2024-02-26T00:40:38;97635.53;;;9.59;100.00
42519;BME280;28147;47.520;18.920;2024-02-26T00:43:03;97623.47;;;9.52;100.00
42519;BME280;28147;47.520;18.920;2024-02-26T00:45:29;97621.44;;;9.59;100.00
42519;BME280;28147;47.520;18.920;2024-02-26T00:47:54;97632.66;;;9.66;100.00
42519;BME280;28147;47.520;18.920;2024-02-26T00:50:20;97634.63;;;9.70;100.00
42519;BME280;28147;47.520;18.920;2024-02-26T00:52:46;97624.84;;;9.76;100.00
42519;BME280;28147;47.520;18.920;2024-02-26T00:55:11;97609.50;;;9.61;100.00
42519;BME280;28147;47.520;18.920;2024-02-26T00:57:36;97621.44;;;9.59;100.00
42519;BME280;28147;47.520;18.920;2024-02-26T01:00:02;97622.72;;;9.56;100.00
42519;BME280;28147;47.520;18.920;2024-02-26T01:02:28;97621.97;;;9.39;100.00
42519;BME280;28147;47.520;18.920;2024-02-26T01:04:53;97628.41;;;9.65;100.00
42519;BME280;28147;47.520;18.920;2024-02-26T01:07:19;97617.22;;;9.41;100.00
42519;BME280;28147;47.520;18.920;2024-02-26T01:09:44;97613.22;;;9.21;100.00
42519;BME280;28147;47.520;18.920;2024-02-26T01:12:10;97610.19;;;9.52;100.00
42519;BME280;28147;47.520;18.920;2024-02-26T01:14:35;97604.06;;;9.73;100.00
42519;BME280;28147;47.520;18.920;2024-02-26T01:17:00;97601.84;;;9.65;100.00
42519;BME280;28147;47.520;18.920;2024-02-26T01:19:25;97601.72;;;9.55;100.00
42519;BME280;28147;47.520;18.920;2024-02-26T01:21:51;97600.41;;;9.57;100.00
42519;BME280;28147;47.520;18.920;2024-02-26T01:24:16;97605.06;;;9.67;100.00
42519;BME280;28147;47.520;18.920;2024-02-26T01:26:42;97594.97;;;9.47;100.00
42519;BME280;28147;47.520;18.920;2024-02-26T01:29:07;97591.78;;;9.67;100.00
42519;BME280;28147;47.520;18.920;2024-02-26T01:31:32;97588.81;;;9.63;100.00
42519;BME280;28147;47.520;18.920;2024-02-26T01:33:58;97591.06;;;9.98;100.00
42519;BME280;28147;47.520;18.920;2024-02-26T01:36:23;97588.91;;;9.95;100.00
42519;BME280;28147;47.520;18.920;2024-02-26T01:38:48;97595.09;;;10.01;100.00
42519;BME280;28147;47.520;18.920;2024-02-26T01:41:14;97600.03;;;9.92;100.00
42519;BME280;28147;47.520;18.920;2024-02-26T01:43:39;97598.13;;;9.88;100.00
42519;BME280;28147;47.520;18.920;2024-02-26T01:46:05;97581.91;;;10.11;100.00
42519;BME280;28147;47.520;18.920;2024-02-26T01:48:31;97578.13;;;10.29;100.00
42519;BME280;28147;47.520;18.920;2024-02-26T01:50:57;97577.94;;;10.14;100.00
42519;BME280;28147;47.520;18.920;2024-02-26T01:53:22;97566.94;;;10.27;100.00
42519;BME280;28147;47.520;18.920;2024-02-26T01:55:48;97579.47;;;10.32;100.00
42519;BME280;28147;47.520;18.920;2024-02-26T01:58:14;97578.97;;;10.08;100.00
42519;BME280;28147;47.520;18.920;2024-02-26T02:00:39;97580.75;;;10.02;100.00
42519;BME280;28147;47.520;18.920;2024-02-26T02:03:05;97586.63;;;10.04;100.00
42519;BME280;28147;47.520;18.920;2024-02-26T02:05:31;97592.38;;;9.96;100.00
42519;BME280;28147;47.520;18.920;2024-02-26T02:07:57;97589.63;;;10.13;100.00
42519;BME280;28147;47.520;18.920;2024-02-26T02:10:22;97591.03;;;9.71;100.00
42519;BME280;28147;47.520;18.920;2024-02-26T02:12:48;97604.41;;;10.04;100.00
42519;BME280;28147;47.520;18.920;2024-02-26T02:15:14;97592.28;;;9.86;100.00
42519;BME280;28147;47.520;18.920;2024-02-26T02:17:39;97599.31;;;9.97;100.00
42519;BME280;28147;47.520;18.920;2024-02-26T02:20:09;97585.28;;;9.58;100.00
42519;BME280;28147;47.520;18.920;2024-02-26T02:22:35;97596.00;;;9.63;100.00
42519;BME280;28147;47.520;18.920;2024-02-26T02:25:00;97591.25;;;9.92;100.00
42519;BME280;28147;47.520;18.920;2024-02-26T02:27:26;97588.69;;;10.24;100.00
42519;BME280;28147;47.520;18.920;2024-02-26T02:29:52;97587.47;;;10.32;100.00
42519;BME280;28147;47.520;18.920;2024-02-26T02:32:19;97589.88;;;10.33;100.00
42519;BME280;28147;47.520;18.920;2024-02-26T02:34:45;97578.28;;;10.22;100.00
42519;BME280;28147;47.520;18.920;2024-02-26T02:37:10;97600.56;;;10.38;100.00
42519;BME280;28147;47.520;18.920;2024-02-26T02:39:36;97594.47;;;10.16;100.00
42519;BME280;28147;47.520;18.920;2024-02-26T02:42:01;97605.59;;;10.35;100.00
42519;BME280;28147;47.520;18.920;2024-02-26T02:44:26;97600.41;;;10.50;100.00
42519;BME280;28147;47.520;18.920;2024-02-26T02:46:52;97596.47;;;10.58;100.00
42519;BME280;28147;47.520;18.920;2024-02-26T02:49:18;97595.84;;;10.78;100.00
42519;BME280;28147;47.520;18.920;2024-02-26T02:51:44;97590.41;;;10.62;100.00
42519;BME280;28147;47.520;18.920;2024-02-26T02:54:09;97586.50;;;10.75;100.00
42519;BME280;28147;47.520;18.920;2024-02-26T02:56:34;97595.19;;;10.98;100.00
42519;BME280;28147;47.520;18.920;2024-02-26T02:59:01;97589.59;;;10.62;100.00
42519;BME280;28147;47.520;18.920;2024-02-26T03:01:26;97587.56;;;10.74;100.00
42519;BME280;28147;47.520;18.920;2024-02-26T03:03:52;97589.44;;;10.74;100.00
42519;BME280;28147;47.520;18.920;2024-02-26T03:06:17;97591.00;;;11.07;100.00
42519;BME280;28147;47.520;18.920;2024-02-26T03:08:42;97599.50;;;11.04;100.00
42519;BME280;28147;47.520;18.920;2024-02-26T03:11:12;97571.88;;;11.15;99.71
42519;BME280;28147;47.520;18.920;2024-02-26T03:13:37;97576.13;;;11.11;99.86
42519;BME280;28147;47.520;18.920;2024-02-26T03:16:06;97576.13;;;11.11;100.00
42519;BME280;28147;47.520;18.920;2024-02-26T03:18:31;97564.28;;;10.96;100.00
42519;BME280;28147;47.520;18.920;2024-02-26T03:20:56;97571.69;;;11.32;98.95
42519;BME280;28147;47.520;18.920;2024-02-26T03:23:22;97582.34;;;11.27;98.95
42519;BME280;28147;47.520;18.920;2024-02-26T03:25:47;97564.94;;;11.14;99.29
42519;BME280;28147;47.520;18.920;2024-02-26T03:28:13;97573.84;;;11.35;98.26
42519;BME280;28147;47.520;18.920;2024-02-26T03:30:38;97573.53;;;11.26;97.41
42519;BME280;28147;47.520;18.920;2024-02-26T03:33:03;97566.56;;;11.20;96.95
42519;BME280;28147;47.520;18.920;2024-02-26T03:35:29;97569.06;;;10.94;98.66
42519;BME280;28147;47.520;18.920;2024-02-26T03:37:54;97576.91;;;10.74;99.12
42519;BME280;28147;47.520;18.920;2024-02-26T03:40:19;97560.53;;;10.87;99.12
42519;BME280;28147;47.520;18.920;2024-02-26T03:42:45;97576.53;;;10.98;97.54
42519;BME280;28147;47.520;18.920;2024-02-26T03:45:11;97573.09;;;10.97;97.57
42519;BME280;28147;47.520;18.920;2024-02-26T03:47:38;97561.94;;;11.05;98.20
42519;BME280;28147;47.520;18.920;2024-02-26T03:50:05;97564.88;;;11.04;98.07
42519;BME280;28147;47.520;18.920;2024-02-26T03:52:31;97554.06;;;10.83;97.38
42519;BME280;28147;47.520;18.920;2024-02-26T03:54:56;97561.41;;;11.03;96.87
42519;BME280;28147;47.520;18.920;2024-02-26T03:57:21;97550.66;;;10.88;96.88
42519;BME280;28147;47.520;18.920;2024-02-26T03:59:46;97558.28;;;10.74;97.56
42519;BME280;28147;47.520;18.920;2024-02-26T04:02:12;97555.41;;;10.81;97.80
42519;BME280;28147;47.520;18.920;2024-02-26T04:04:37;97559.06;;;10.69;99.33
42519;BME280;28147;47.520;18.920;2024-02-26T04:07:02;97560.16;;;10.79;98.22
42519;BME280;28147;47.520;18.920;2024-02-26T04:09:28;97577.59;;;10.91;98.22
42519;BME280;28147;47.520;18.920;2024-02-26T04:11:53;97573.19;;;10.75;98.48
42519;BME280;28147;47.520;18.920;2024-02-26T04:14:18;97563.41;;;10.86;98.29
42519;BME280;28147;47.520;18.920;2024-02-26T04:16:44;97564.50;;;10.90;97.88
42519;BME280;28147;47.520;18.920;2024-02-26T04:19:09;97554.22;;;11.04;96.66
42519;BME280;28147;47.520;18.920;2024-02-26T04:21:34;97557.66;;;10.99;96.15
42519;BME280;28147;47.520;18.920;2024-02-26T04:24:00;97562.66;;;10.90;96.22
42519;BME280;28147;47.520;18.920;2024-02-26T04:26:27;97555.72;;;10.89;96.49
42519;BME280;28147;47.520;18.920;2024-02-26T04:28:53;97558.91;;;10.86;96.30
42519;BME280;28147;47.520;18.920;2024-02-26T04:31:19;97555.13;;;10.82;97.26
42519;BME280;28147;47.520;18.920;2024-02-26T04:33:44;97556.28;;;10.91;96.72
42519;BME280;28147;47.520;18.920;2024-02-26T04:36:13;97554.59;;;10.80;97.38
42519;BME280;28147;47.520;18.920;2024-02-26T04:38:40;97556.88;;;10.99;95.93
42519;BME280;28147;47.520;18.920;2024-02-26T04:41:05;97556.31;;;10.96;96.14
42519;BME280;28147;47.520;18.920;2024-02-26T04:43:31;97550.91;;;10.86;95.94
42519;BME280;28147;47.520;18.920;2024-02-26T04:45:56;97557.28;;;10.85;95.54
42519;BME280;28147;47.520;18.920;2024-02-26T04:48:22;97545.00;;;10.79;96.21
42519;BME280;28147;47.520;18.920;2024-02-26T04:50:48;97552.97;;;10.74;96.92
42519;BME280;28147;47.520;18.920;2024-02-26T04:53:13;97537.44;;;10.61;97.33
42519;BME280;28147;47.520;18.920;2024-02-26T04:55:38;97549.22;;;10.75;96.39
42519;BME280;28147;47.520;18.920;2024-02-26T04:58:04;97551.06;;;10.69;96.74
42519;BME280;28147;47.520;18.920;2024-02-26T05:00:29;97543.38;;;10.73;96.88
42519;BME280;28147;47.520;18.920;2024-02-26T05:02:54;97550.13;;;10.91;96.04
42519;BME280;28147;47.520;18.920;2024-02-26T05:05:20;97557.97;;;10.65;98.01
42519;BME280;28147;47.520;18.920;2024-02-26T05:07:45;97556.91;;;10.71;97.49
42519;BME280;28147;47.520;18.920;2024-02-26T05:10:10;97546.03;;;10.73;97.87
42519;BME280;28147;47.520;18.920;2024-02-26T05:12:36;97547.47;;;10.91;96.96
42519;BME280;28147;47.520;18.920;2024-02-26T05:15:02;97548.31;;;10.96;95.83
42519;BME280;28147;47.520;18.920;2024-02-26T05:17:27;97539.25;;;10.92;96.61
42519;BME280;28147;47.520;18.920;2024-02-26T05:19:53;97543.72;;;10.87;96.44
42519;BME280;28147;47.520;18.920;2024-02-26T05:22:18;97549.63;;;10.57;97.91
42519;BME280;28147;47.520;18.920;2024-02-26T05:24:44;97541.78;;;10.72;97.38
42519;BME280;28147;47.520;18.920;2024-02-26T05:27:09;97543.59;;;10.66;97.42
42519;BME280;28147;47.520;18.920;2024-02-26T05:29:35;97547.63;;;10.74;97.25
42519;BME280;28147;47.520;18.920;2024-02-26T05:32:00;97541.31;;;10.80;96.26
42519;BME280;28147;47.520;18.920;2024-02-26T05:34:26;97550.88;;;10.81;97.22
42519;BME280;28147;47.520;18.920;2024-02-26T05:36:52;97552.97;;;10.79;95.93
42519;BME280;28147;47.520;18.920;2024-02-26T05:39:17;97545.94;;;10.95;95.48
42519;BME280;28147;47.520;18.920;2024-02-26T05:41:42;97537.75;;;11.07;94.74
42519;BME280;28147;47.520;18.920;2024-02-26T05:44:08;97544.81;;;10.91;94.36
42519;BME280;28147;47.520;18.920;2024-02-26T05:46:35;97545.56;;;10.81;95.00
42519;BME280;28147;47.520;18.920;2024-02-26T05:49:00;97540.34;;;11.02;95.69
42519;BME280;28147;47.520;18.920;2024-02-26T05:51:26;97538.34;;;11.19;94.65
42519;BME280;28147;47.520;18.920;2024-02-26T05:53:51;97550.34;;;11.22;94.57
42519;BME280;28147;47.520;18.920;2024-02-26T05:56:20;97535.38;;;11.10;93.10
42519;BME280;28147;47.520;18.920;2024-02-26T05:58:45;97548.25;;;10.86;95.06
42519;BME280;28147;47.520;18.920;2024-02-26T06:01:11;97545.56;;;10.81;95.47
42519;BME280;28147;47.520;18.920;2024-02-26T06:03:36;97543.31;;;11.05;94.25
42519;BME280;28147;47.520;18.920;2024-02-26T06:06:01;97542.78;;;11.08;93.90
42519;BME280;28147;47.520;18.920;2024-02-26T06:08:27;97547.75;;;10.94;95.25
42519;BME280;28147;47.520;18.920;2024-02-26T06:10:52;97555.34;;;11.13;95.09
42519;BME280;28147;47.520;18.920;2024-02-26T06:13:17;97564.19;;;11.18;94.41
42519;BME280;28147;47.520;18.920;2024-02-26T06:15:43;97560.06;;;11.01;95.27
42519;BME280;28147;47.520;18.920;2024-02-26T06:18:08;97570.31;;;11.24;94.61
42519;BME280;28147;47.520;18.920;2024-02-26T06:20:33;97563.97;;;11.30;94.07
42519;BME280;28147;47.520;18.920;2024-02-26T06:22:59;97556.19;;;11.18;94.43
42519;BME280;28147;47.520;18.920;2024-02-26T06:25:24;97572.50;;;11.32;94.80
42519;BME280;28147;47.520;18.920;2024-02-26T06:27:50;97561.50;;;11.18;94.54
42519;BME280;28147;47.520;18.920;2024-02-26T06:30:16;97567.34;;;11.15;94.01
42519;BME280;28147;47.520;18.920;2024-02-26T06:32:41;97571.38;;;11.18;95.02
42519;BME280;28147;47.520;18.920;2024-02-26T06:35:07;97583.06;;;11.17;95.10
42519;BME280;28147;47.520;18.920;2024-02-26T06:37:34;97577.81;;;11.27;94.08
42519;BME280;28147;47.520;18.920;2024-02-26T06:40:00;97576.84;;;11.49;92.78
42519;BME280;28147;47.520;18.920;2024-02-26T06:42:26;97569.38;;;11.51;93.52
42519;BME280;28147;47.520;18.920;2024-02-26T06:44:52;97566.16;;;11.43;92.94
42519;BME280;28147;47.520;18.920;2024-02-26T06:47:17;97554.41;;;11.39;94.42
42519;BME280;28147;47.520;18.920;2024-02-26T06:49:43;97561.94;;;11.53;92.32
42519;BME280;28147;47.520;18.920;2024-02-26T06:52:09;97567.50;;;11.46;92.30
42519;BME280;28147;47.520;18.920;2024-02-26T06:54:34;97563.09;;;11.72;91.55
42519;BME280;28147;47.520;18.920;2024-02-26T06:56:59;97581.47;;;11.68;92.08
42519;BME280;28147;47.520;18.920;2024-02-26T06:59:25;97578.41;;;11.97;91.29
42519;BME280;28147;47.520;18.920;2024-02-26T07:01:50;97571.03;;;11.62;92.44
42519;BME280;28147;47.520;18.920;2024-02-26T07:04:16;97585.28;;;11.30;96.22
42519;BME280;28147;47.520;18.920;2024-02-26T07:06:41;97577.94;;;11.53;96.14
42519;BME280;28147;47.520;18.920;2024-02-26T07:09:08;97582.97;;;11.44;95.11
42519;BME280;28147;47.520;18.920;2024-02-26T07:11:33;97576.16;;;11.21;96.43
42519;BME280;28147;47.520;18.920;2024-02-26T07:13:59;97577.09;;;11.42;95.71
42519;BME280;28147;47.520;18.920;2024-02-26T07:16:26;97565.13;;;11.44;96.64
42519;BME280;28147;47.520;18.920;2024-02-26T07:18:52;97575.59;;;11.14;97.22
42519;BME280;28147;47.520;18.920;2024-02-26T07:21:17;97570.00;;;11.15;96.90
42519;BME280;28147;47.520;18.920;2024-02-26T07:23:42;97578.50;;;11.12;97.99
42519;BME280;28147;47.520;18.920;2024-02-26T07:26:08;97582.34;;;11.32;97.50
42519;BME280;28147;47.520;18.920;2024-02-26T07:28:34;97586.91;;;11.36;97.82
42519;BME280;28147;47.520;18.920;2024-02-26T07:30:59;97587.88;;;11.73;97.13
42519;BME280;28147;47.520;18.920;2024-02-26T07:33:24;97572.94;;;11.14;98.06
42519;BME280;28147;47.520;18.920;2024-02-26T07:35:50;97604.00;;;11.40;99.49
42519;BME280;28147;47.520;18.920;2024-02-26T07:38:15;97595.91;;;11.25;97.57
42519;BME280;28147;47.520;18.920;2024-02-26T07:40:40;97607.56;;;11.14;98.82
42519;BME280;28147;47.520;18.920;2024-02-26T07:43:06;97590.81;;;11.18;98.07
42519;BME280;28147;47.520;18.920;2024-02-26T07:45:31;97600.50;;;10.98;99.62
42519;BME280;28147;47.520;18.920;2024-02-26T07:47:56;97601.88;;;11.00;100.00
42519;BME280;28147;47.520;18.920;2024-02-26T07:50:21;97594.97;;;11.47;99.48
42519;BME280;28147;47.520;18.920;2024-02-26T07:52:47;97601.88;;;11.48;100.00
42519;BME280;28147;47.520;18.920;2024-02-26T07:55:12;97598.81;;;11.71;98.48
42519;BME280;28147;47.520;18.920;2024-02-26T07:57:42;97598.63;;;11.35;98.69
42519;BME280;28147;47.520;18.920;2024-02-26T08:00:08;97601.06;;;11.42;98.34
42519;BME280;28147;47.520;18.920;2024-02-26T08:02:36;97605.22;;;11.23;99.57
42519;BME280;28147;47.520;18.920;2024-02-26T08:05:01;97611.91;;;11.25;100.00
42519;BME280;28147;47.520;18.920;2024-02-26T08:07:27;97609.72;;;11.69;98.41
42519;BME280;28147;47.520;18.920;2024-02-26T08:09:53;97623.16;;;11.85;97.01
42519;BME280;28147;47.520;18.920;2024-02-26T08:12:19;97613.75;;;11.72;97.47
42519;BME280;28147;47.520;18.920;2024-02-26T08:14:44;97639.44;;;11.83;97.02
42519;BME280;28147;47.520;18.920;2024-02-26T08:17:10;97625.09;;;12.00;97.45
42519;BME280;28147;47.520;18.920;2024-02-26T08:19:35;97619.66;;;11.79;96.08
42519;BME280;28147;47.520;18.920;2024-02-26T08:22:01;97617.81;;;11.85;95.84
42519;BME280;28147;47.520;18.920;2024-02-26T08:24:27;97605.69;;;11.57;98.33
42519;BME280;28147;47.520;18.920;2024-02-26T08:26:53;97612.28;;;11.44;96.50
42519;BME280;28147;47.520;18.920;2024-02-26T08:29:18;97613.81;;;11.82;96.49
42519;BME280;28147;47.520;18.920;2024-02-26T08:31:43;97618.84;;;11.79;95.75
42519;BME280;28147;47.520;18.920;2024-02-26T08:34:09;97604.59;;;11.53;97.59
42519;BME280;28147;47.520;18.920;2024-02-26T08:36:34;97605.25;;;11.80;96.28
42519;BME280;28147;47.520;18.920;2024-02-26T08:39:00;97614.31;;;11.79;95.82
42519;BME280;28147;47.520;18.920;2024-02-26T08:41:26;97602.81;;;11.68;97.13
42519;BME280;28147;47.520;18.920;2024-02-26T08:43:51;97616.94;;;11.69;96.98
42519;BME280;28147;47.520;18.920;2024-02-26T08:46:17;97615.28;;;11.63;98.29
42519;BME280;28147;47.520;18.920;2024-02-26T08:48:42;97615.38;;;11.78;96.39
42519;BME280;28147;47.520;18.920;2024-02-26T08:51:08;97614.41;;;11.89;95.81
42519;BME280;28147;47.520;18.920;2024-02-26T08:53:35;97617.63;;;12.07;95.13
42519;BME280;28147;47.520;18.920;2024-02-26T08:56:00;97620.06;;;12.13;95.63
42519;BME280;28147;47.520;18.920;2024-02-26T08:58:27;97623.19;;;11.95;94.33
42519;BME280;28147;47.520;18.920;2024-02-26T09:00:52;97627.28;;;12.13;92.83
42519;BME280;28147;47.520;18.920;2024-02-26T09:03:18;97626.19;;;12.14;92.83
42519;BME280;28147;47.520;18.920;2024-02-26T09:05:43;97633.16;;;12.25;92.37
42519;BME280;28147;47.520;18.920;2024-02-26T09:08:08;97624.97;;;12.62;92.25
42519;BME280;28147;47.520;18.920;2024-02-26T09:10:34;97634.31;;;12.75;91.31
42519;BME280;28147;47.520;18.920;2024-02-26T09:12:59;97635.34;;;12.54;91.70
42519;BME280;28147;47.520;18.920;2024-02-26T09:15:24;97637.94;;;12.13;91.58
42519;BME280;28147;47.520;18.920;2024-02-26T09:17:50;97635.97;;;11.88;93.70
42519;BME280;28147;47.520;18.920;2024-02-26T09:20:16;97637.13;;;12.07;92.49
42519;BME280;28147;47.520;18.920;2024-02-26T09:22:45;97626.47;;;12.12;92.00
42519;BME280;28147;47.520;18.920;2024-02-26T09:25:10;97618.72;;;11.58;94.18
42519;BME280;28147;47.520;18.920;2024-02-26T09:27:36;97634.56;;;11.80;94.88
42519;BME280;28147;47.520;18.920;2024-02-26T09:30:01;97630.91;;;11.86;93.93
42519;BME280;28147;47.520;18.920;2024-02-26T09:32:26;97623.56;;;11.66;94.12
42519;BME280;28147;47.520;18.920;2024-02-26T09:34:51;97639.03;;;12.27;93.96
42519;BME280;28147;47.520;18.920;2024-02-26T09:37:17;97642.72;;;12.11;92.22
42519;BME280;28147;47.520;18.920;2024-02-26T09:39:42;97630.25;;;12.37;91.49
42519;BME280;28147;47.520;18.920;2024-02-26T09:42:09;97641.19;;;12.25;91.60
42519;BME280;28147;47.520;18.920;2024-02-26T09:44:36;97624.59;;;12.13;90.79
42519;BME280;28147;47.520;18.920;2024-02-26T09:47:04;97636.63;;;12.21;90.63
42519;BME280;28147;47.520;18.920;2024-02-26T09:49:30;97645.44;;;12.26;88.96
42519;BME280;28147;47.520;18.920;2024-02-26T09:51:56;97641.06;;;11.95;91.36
42519;BME280;28147;47.520;18.920;2024-02-26T09:54:23;97652.84;;;12.04;91.06
42519;BME280;28147;47.520;18.920;2024-02-26T09:56:52;97650.50;;;12.23;88.10
42519;BME280;28147;47.520;18.920;2024-02-26T09:59:20;97656.28;;;11.99;89.05
42519;BME280;28147;47.520;18.920;2024-02-26T10:01:46;97652.88;;;12.09;90.58
42519;BME280;28147;47.520;18.920;2024-02-26T10:04:12;97641.13;;;12.15;89.83
42519;BME280;28147;47.520;18.920;2024-02-26T10:06:39;97649.47;;;12.24;90.36
42519;BME280;28147;47.520;18.920;2024-02-26T10:09:05;97650.56;;;11.80;91.03
42519;BME280;28147;47.520;18.920;2024-02-26T10:11:32;97649.88;;;12.00;90.20
42519;BME280;28147;47.520;18.920;2024-02-26T10:13:58;97649.88;;;11.95;90.15
42519;BME280;28147;47.520;18.920;2024-02-26T10:16:25;97648.09;;;12.21;90.07
42519;BME280;28147;47.520;18.920;2024-02-26T10:18:52;97647.09;;;11.80;89.77
42519;BME280;28147;47.520;18.920;2024-02-26T10:21:20;97635.19;;;11.92;90.47
42519;BME280;28147;47.520;18.920;2024-02-26T10:23:46;97639.34;;;12.36;86.97
42519;BME280;28147;47.520;18.920;2024-02-26T10:26:16;97648.44;;;12.45;85.60
42519;BME280;28147;47.520;18.920;2024-02-26T10:28:42;97640.97;;;12.47;85.20
42519;BME280;28147;47.520;18.920;2024-02-26T10:31:09;97620.13;;;12.49;85.84
42519;BME280;28147;47.520;18.920;2024-02-26T10:33:35;97634.84;;;12.87;82.34
42519;BME280;28147;47.520;18.920;2024-02-26T10:36:04;97640.50;;;14.17;77.00
42519;BME280;28147;47.520;18.920;2024-02-26T10:38:32;97636.09;;;14.36;75.53
42519;BME280;28147;47.520;18.920;2024-02-26T10:40:58;97631.53;;;13.77;76.70
42519;BME280;28147;47.520;18.920;2024-02-26T10:43:25;97633.63;;;13.96;73.44
42519;BME280;28147;47.520;18.920;2024-02-26T10:45:50;97627.19;;;14.46;74.49
42519;BME280;28147;47.520;18.920;2024-02-26T10:48:16;97629.56;;;14.58;72.95
42519;BME280;28147;47.520;18.920;2024-02-26T10:50:43;97619.16;;;14.02;74.68
42519;BME280;28147;47.520;18.920;2024-02-26T10:53:20;97619.91;;;14.07;74.39
42519;BME280;28147;47.520;18.920;2024-02-26T10:55:54;97628.66;;;14.28;74.76
42519;BME280;28147;47.520;18.920;2024-02-26T10:58:20;97624.84;;;14.34;73.46
42519;BME280;28147;47.520;18.920;2024-02-26T11:00:47;97618.91;;;14.48;72.42
42519;BME280;28147;47.520;18.920;2024-02-26T11:03:15;97624.78;;;13.90;74.72
42519;BME280;28147;47.520;18.920;2024-02-26T11:05:43;97613.22;;;14.10;74.87
42519;BME280;28147;47.520;18.920;2024-02-26T11:08:11;97623.13;;;14.04;75.42
42519;BME280;28147;47.520;18.920;2024-02-26T11:10:36;97625.13;;;13.83;75.37
42519;BME280;28147;47.520;18.920;2024-02-26T11:13:02;97625.94;;;13.74;77.35
42519;BME280;28147;47.520;18.920;2024-02-26T11:15:30;97624.97;;;13.34;78.22
42519;BME280;28147;47.520;18.920;2024-02-26T11:17:58;97612.16;;;13.31;79.22
42519;BME280;28147;47.520;18.920;2024-02-26T11:20:25;97609.97;;;13.48;79.69
42519;BME280;28147;47.520;18.920;2024-02-26T11:22:53;97616.66;;;13.41;77.60
42519;BME280;28147;47.520;18.920;2024-02-26T11:25:18;97614.28;;;13.24;77.24
42519;BME280;28147;47.520;18.920;2024-02-26T11:27:48;97632.19;;;13.03;77.30
42519;BME280;28147;47.520;18.920;2024-02-26T11:30:15;97618.28;;;13.21;78.28
42519;BME280;28147;47.520;18.920;2024-02-26T11:32:47;97619.63;;;13.29;79.04
42519;BME280;28147;47.520;18.920;2024-02-26T11:35:13;97624.44;;;13.11;79.17
42519;BME280;28147;47.520;18.920;2024-02-26T11:37:41;97614.03;;;13.30;80.81
42519;BME280;28147;47.520;18.920;2024-02-26T11:40:11;97620.97;;;13.26;78.38
42519;BME280;28147;47.520;18.920;2024-02-26T11:42:44;97613.19;;;13.45;77.21
42519;BME280;28147;47.520;18.920;2024-02-26T11:48:17;97628.44;;;13.14;79.24
42519;BME280;28147;47.520;18.920;2024-02-26T11:50:49;97614.28;;;12.98;81.03
42519;BME280;28147;47.520;18.920;2024-02-26T11:53:28;97628.44;;;12.83;82.64
42519;BME280;28147;47.520;18.920;2024-02-26T11:58:45;97603.34;;;12.74;82.14
42519;BME280;28147;47.520;18.920;2024-02-26T12:01:36;97631.13;;;12.78;83.11
42519;BME280;28147;47.520;18.920;2024-02-26T12:04:02;97616.41;;;12.76;84.34
42519;BME280;28147;47.520;18.920;2024-02-26T12:06:29;97620.16;;;13.10;83.79
42519;BME280;28147;47.520;18.920;2024-02-26T12:08:56;97622.28;;;13.13;82.56
42519;BME280;28147;47.520;18.920;2024-02-26T12:11:21;97604.66;;;13.12;82.58
42519;BME280;28147;47.520;18.920;2024-02-26T12:13:47;97611.63;;;12.93;83.27
42519;BME280;28147;47.520;18.920;2024-02-26T12:16:35;97614.56;;;12.81;83.16
42519;BME280;28147;47.520;18.920;2024-02-26T12:19:04;97613.50;;;12.98;82.91
42519;BME280;28147;47.520;18.920;2024-02-26T12:21:30;97615.63;;;12.70;83.64
42519;BME280;28147;47.520;18.920;2024-02-26T12:23:55;97623.38;;;12.97;82.74
42519;BME280;28147;47.520;18.920;2024-02-26T12:26:21;97607.09;;;13.04;82.62
42519;BME280;28147;47.520;18.920;2024-02-26T12:28:46;97615.34;;;13.18;81.51
42519;BME280;28147;47.520;18.920;2024-02-26T12:31:12;97611.88;;;13.17;81.82
42519;BME280;28147;47.520;18.920;2024-02-26T12:33:38;97609.19;;;13.17;82.67
42519;BME280;28147;47.520;18.920;2024-02-26T12:36:04;97611.88;;;13.27;82.47
42519;BME280;28147;47.520;18.920;2024-02-26T12:38:29;97615.31;;;13.53;82.01
42519;BME280;28147;47.520;18.920;2024-02-26T12:40:55;97605.44;;;13.38;81.11
42519;BME280;28147;47.520;18.920;2024-02-26T12:43:20;97615.59;;;13.36;81.06
42519;BME280;28147;47.520;18.920;2024-02-26T12:45:46;97609.09;;;13.73;79.23
42519;BME280;28147;47.520;18.920;2024-02-26T12:48:13;97613.75;;;13.32;81.42